sensor_id;sensor_type;location;lat;lon;timestamp;P1;durP1;ratioP1;P2;durP2;ratioP2
15667;SDS011;7934;48.710;9.024;2023-04-15T00:01:13;5.40;;;3.30;;
15667;SDS011;7934;48.710;9.024;2023-04-15T00:03:43;5.85;;;3.30;;
15667;SDS011;7934;48.710;9.024;2023-04-15T00:06:11;5.53;;;3.03;;
15667;SDS011;7934;48.710;9.024;2023-04-15T00:08:38;9.52;;;3.13;;
15667;SDS011;7934;48.710;9.024;2023-04-15T00:11:05;5.47;;;3.47;;
15667;SDS011;7934;48.710;9.024;2023-04-15T00:13:34;6.47;;;3.20;;
15667;SDS011;7934;48.710;9.024;2023-04-15T00:16:01;5.30;;;2.97;;
15667;SDS011;7934;48.710;9.024;2023-04-15T00:18:29;5.47;;;3.30;;
15667;SDS011;7934;48.710;9.024;2023-04-15T00:20:56;6.60;;;3.23;;
15667;SDS011;7934;48.710;9.024;2023-04-15T00:23:23;5.30;;;3.42;;
15667;SDS011;7934;48.710;9.024;2023-04-15T00:25:50;12.27;;;3.17;;
15667;SDS011;7934;48.710;9.024;2023-04-15T00:28:18;5.40;;;3.40;;
15667;SDS011;7934;48.710;9.024;2023-04-15T00:30:46;7.00;;;3.28;;
15667;SDS011;7934;48.710;9.024;2023-04-15T00:33:13;6.80;;;3.27;;
15667;SDS011;7934;48.710;9.024;2023-04-15T00:35:41;7.30;;;3.65;;
15667;SDS011;7934;48.710;9.024;2023-04-15T00:38:08;5.82;;;3.78;;
15667;SDS011;7934;48.710;9.024;2023-04-15T00:40:36;7.50;;;4.28;;
15667;SDS011;7934;48.710;9.024;2023-04-15T00:43:03;8.05;;;4.60;;
15667;SDS011;7934;48.710;9.024;2023-04-15T00:45:31;9.48;;;4.15;;
15667;SDS011;7934;48.710;9.024;2023-04-15T00:48:01;7.00;;;4.20;;
15667;SDS011;7934;48.710;9.024;2023-04-15T00:50:29;6.43;;;4.13;;
15667;SDS011;7934;48.710;9.024;2023-04-15T00:52:56;8.98;;;3.42;;
15667;SDS011;7934;48.710;9.024;2023-04-15T00:55:23;4.68;;;3.50;;
15667;SDS011;7934;48.710;9.024;2023-04-15T00:57:50;4.20;;;3.55;;
15667;SDS011;7934;48.710;9.024;2023-04-15T01:00:18;7.97;;;3.53;;
15667;SDS011;7934;48.710;9.024;2023-04-15T01:02:46;5.68;;;3.80;;
15667;SDS011;7934;48.710;9.024;2023-04-15T01:05:15;7.70;;;3.78;;
15667;SDS011;7934;48.710;9.024;2023-04-15T01:07:43;8.55;;;4.00;;
15667;SDS011;7934;48.710;9.024;2023-04-15T01:10:11;6.60;;;4.10;;
15667;SDS011;7934;48.710;9.024;2023-04-15T01:12:38;9.07;;;3.72;;
15667;SDS011;7934;48.710;9.024;2023-04-15T01:15:07;5.17;;;3.63;;
15667;SDS011;7934;48.710;9.024;2023-04-15T01:17:35;7.90;;;3.75;;
15667;SDS011;7934;48.710;9.024;2023-04-15T01:20:02;6.22;;;3.85;;
15667;SDS011;7934;48.710;9.024;2023-04-15T01:22:31;6.28;;;3.80;;
15667;SDS011;7934;48.710;9.024;2023-04-15T01:25:00;5.50;;;3.40;;
15667;SDS011;7934;48.710;9.024;2023-04-15T01:27:30;9.52;;;3.60;;
15667;SDS011;7934;48.710;9.024;2023-04-15T01:29:57;8.80;;;3.90;;
15667;SDS011;7934;48.710;9.024;2023-04-15T01:32:24;4.85;;;3.30;;
15667;SDS011;7934;48.710;9.024;2023-04-15T01:34:51;7.97;;;3.60;;
15667;SDS011;7934;48.710;9.024;2023-04-15T01:37:19;6.75;;;3.35;;
15667;SDS011;7934;48.710;9.024;2023-04-15T01:39:46;6.77;;;3.27;;
15667;SDS011;7934;48.710;9.024;2023-04-15T01:42:14;7.27;;;3.67;;
15667;SDS011;7934;48.710;9.024;2023-04-15T01:44:43;5.70;;;4.03;;
15667;SDS011;7934;48.710;9.024;2023-04-15T01:47:11;5.32;;;3.78;;
15667;SDS011;7934;48.710;9.024;2023-04-15T01:49:40;9.00;;;4.07;;
15667;SDS011;7934;48.710;9.024;2023-04-15T01:52:07;5.68;;;4.03;;
15667;SDS011;7934;48.710;9.024;2023-04-15T01:54:34;10.37;;;4.23;;
15667;SDS011;7934;48.710;9.024;2023-04-15T01:57:02;10.32;;;3.88;;
15667;SDS011;7934;48.710;9.024;2023-04-15T01:59:29;9.18;;;4.05;;
15667;SDS011;7934;48.710;9.024;2023-04-15T02:01:58;5.72;;;3.60;;
15667;SDS011;7934;48.710;9.024;2023-04-15T02:04:26;6.10;;;4.15;;
15667;SDS011;7934;48.710;9.024;2023-04-15T02:06:53;6.63;;;3.80;;
15667;SDS011;7934;48.710;9.024;2023-04-15T02:09:21;7.28;;;4.10;;
15667;SDS011;7934;48.710;9.024;2023-04-15T02:11:49;7.38;;;4.20;;
15667;SDS011;7934;48.710;9.024;2023-04-15T02:14:17;6.97;;;3.92;;
15667;SDS011;7934;48.710;9.024;2023-04-15T02:16:44;7.87;;;4.10;;
15667;SDS011;7934;48.710;9.024;2023-04-15T02:19:13;5.65;;;3.83;;
15667;SDS011;7934;48.710;9.024;2023-04-15T02:21:40;7.68;;;4.10;;
15667;SDS011;7934;48.710;9.024;2023-04-15T02:24:07;8.65;;;4.05;;
15667;SDS011;7934;48.710;9.024;2023-04-15T02:26:36;7.30;;;4.13;;
15667;SDS011;7934;48.710;9.024;2023-04-15T02:29:03;6.43;;;3.95;;
15667;SDS011;7934;48.710;9.024;2023-04-15T02:31:30;8.10;;;4.40;;
15667;SDS011;7934;48.710;9.024;2023-04-15T02:34:01;9.13;;;4.40;;
15667;SDS011;7934;48.710;9.024;2023-04-15T02:36:30;7.93;;;4.40;;
15667;SDS011;7934;48.710;9.024;2023-04-15T02:38:58;8.45;;;4.78;;
15667;SDS011;7934;48.710;9.024;2023-04-15T02:41:25;9.07;;;4.55;;
15667;SDS011;7934;48.710;9.024;2023-04-15T02:43:53;13.48;;;4.55;;
15667;SDS011;7934;48.710;9.024;2023-04-15T02:46:20;7.27;;;4.40;;
15667;SDS011;7934;48.710;9.024;2023-04-15T02:48:48;7.40;;;4.33;;
15667;SDS011;7934;48.710;9.024;2023-04-15T02:51:16;9.88;;;4.30;;
15667;SDS011;7934;48.710;9.024;2023-04-15T02:53:45;8.30;;;4.00;;
15667;SDS011;7934;48.710;9.024;2023-04-15T02:56:12;7.65;;;4.35;;
15667;SDS011;7934;48.710;9.024;2023-04-15T02:58:42;7.40;;;4.22;;
15667;SDS011;7934;48.710;9.024;2023-04-15T03:01:09;8.07;;;4.38;;
15667;SDS011;7934;48.710;9.024;2023-04-15T03:03:37;7.65;;;3.90;;
15667;SDS011;7934;48.710;9.024;2023-04-15T03:06:04;10.00;;;4.45;;
15667;SDS011;7934;48.710;9.024;2023-04-15T03:08:32;6.00;;;4.00;;
15667;SDS011;7934;48.710;9.024;2023-04-15T03:11:01;11.75;;;4.55;;
15667;SDS011;7934;48.710;9.024;2023-04-15T03:13:29;9.60;;;4.63;;
15667;SDS011;7934;48.710;9.024;2023-04-15T03:15:56;7.03;;;4.13;;
15667;SDS011;7934;48.710;9.024;2023-04-15T03:18:23;7.97;;;4.50;;
15667;SDS011;7934;48.710;9.024;2023-04-15T03:20:50;6.88;;;4.30;;
15667;SDS011;7934;48.710;9.024;2023-04-15T03:23:17;10.05;;;4.90;;
15667;SDS011;7934;48.710;9.024;2023-04-15T03:25:44;9.05;;;4.28;;
15667;SDS011;7934;48.710;9.024;2023-04-15T03:28:13;10.20;;;5.03;;
15667;SDS011;7934;48.710;9.024;2023-04-15T03:30:40;10.68;;;5.10;;
15667;SDS011;7934;48.710;9.024;2023-04-15T03:33:07;8.10;;;5.07;;
15667;SDS011;7934;48.710;9.024;2023-04-15T03:35:34;9.30;;;5.30;;
15667;SDS011;7934;48.710;9.024;2023-04-15T03:38:02;10.00;;;5.18;;
15667;SDS011;7934;48.710;9.024;2023-04-15T03:40:29;7.25;;;4.95;;
15667;SDS011;7934;48.710;9.024;2023-04-15T03:42:56;7.55;;;4.60;;
15667;SDS011;7934;48.710;9.024;2023-04-15T03:45:24;7.50;;;4.40;;
15667;SDS011;7934;48.710;9.024;2023-04-15T03:47:52;7.35;;;4.30;;
15667;SDS011;7934;48.710;9.024;2023-04-15T03:50:19;5.40;;;3.80;;
15667;SDS011;7934;48.710;9.024;2023-04-15T03:52:46;9.60;;;4.22;;
15667;SDS011;7934;48.710;9.024;2023-04-15T03:55:14;8.13;;;4.60;;
15667;SDS011;7934;48.710;9.024;2023-04-15T03:57:41;7.13;;;4.43;;
15667;SDS011;7934;48.710;9.024;2023-04-15T04:00:08;10.18;;;4.40;;
15667;SDS011;7934;48.710;9.024;2023-04-15T04:02:37;5.68;;;4.25;;
15667;SDS011;7934;48.710;9.024;2023-04-15T04:05:04;13.55;;;5.10;;
15667;SDS011;7934;48.710;9.024;2023-04-15T04:07:32;8.48;;;4.70;;
15667;SDS011;7934;48.710;9.024;2023-04-15T04:09:59;8.82;;;4.90;;
15667;SDS011;7934;48.710;9.024;2023-04-15T04:12:27;10.38;;;4.30;;
15667;SDS011;7934;48.710;9.024;2023-04-15T04:14:55;7.18;;;4.53;;
15667;SDS011;7934;48.710;9.024;2023-04-15T04:17:22;7.53;;;4.60;;
15667;SDS011;7934;48.710;9.024;2023-04-15T04:19:50;5.80;;;4.67;;
15667;SDS011;7934;48.710;9.024;2023-04-15T04:22:20;7.95;;;4.50;;
15667;SDS011;7934;48.710;9.024;2023-04-15T04:24:48;7.80;;;4.47;;
15667;SDS011;7934;48.710;9.024;2023-04-15T04:27:15;9.38;;;5.03;;
15667;SDS011;7934;48.710;9.024;2023-04-15T04:29:42;8.80;;;4.28;;
15667;SDS011;7934;48.710;9.024;2023-04-15T04:32:11;6.47;;;4.13;;
15667;SDS011;7934;48.710;9.024;2023-04-15T04:34:38;10.30;;;4.57;;
15667;SDS011;7934;48.710;9.024;2023-04-15T04:37:07;9.77;;;4.95;;
15667;SDS011;7934;48.710;9.024;2023-04-15T04:39:34;7.45;;;4.47;;
15667;SDS011;7934;48.710;9.024;2023-04-15T04:42:01;7.78;;;4.45;;
15667;SDS011;7934;48.710;9.024;2023-04-15T04:44:28;8.45;;;4.32;;
15667;SDS011;7934;48.710;9.024;2023-04-15T04:46:55;10.07;;;4.40;;
15667;SDS011;7934;48.710;9.024;2023-04-15T04:49:23;6.72;;;4.07;;
15667;SDS011;7934;48.710;9.024;2023-04-15T04:51:50;8.70;;;4.63;;
15667;SDS011;7934;48.710;9.024;2023-04-15T04:54:19;12.32;;;4.20;;
15667;SDS011;7934;48.710;9.024;2023-04-15T04:56:46;7.10;;;4.20;;
15667;SDS011;7934;48.710;9.024;2023-04-15T04:59:13;9.30;;;4.38;;
15667;SDS011;7934;48.710;9.024;2023-04-15T05:01:40;7.75;;;4.38;;
15667;SDS011;7934;48.710;9.024;2023-04-15T05:04:08;7.82;;;4.60;;
15667;SDS011;7934;48.710;9.024;2023-04-15T05:06:35;6.63;;;4.22;;
15667;SDS011;7934;48.710;9.024;2023-04-15T05:09:02;8.43;;;4.18;;
15667;SDS011;7934;48.710;9.024;2023-04-15T05:11:31;7.57;;;4.53;;
15667;SDS011;7934;48.710;9.024;2023-04-15T05:13:58;9.68;;;4.78;;
15667;SDS011;7934;48.710;9.024;2023-04-15T05:16:26;6.82;;;4.47;;
15667;SDS011;7934;48.710;9.024;2023-04-15T05:18:53;6.93;;;4.60;;
15667;SDS011;7934;48.710;9.024;2023-04-15T05:21:20;5.78;;;4.40;;
15667;SDS011;7934;48.710;9.024;2023-04-15T05:23:48;8.13;;;4.50;;
15667;SDS011;7934;48.710;9.024;2023-04-15T05:26:15;10.95;;;5.03;;
15667;SDS011;7934;48.710;9.024;2023-04-15T05:28:44;4.50;;;4.10;;
15667;SDS011;7934;48.710;9.024;2023-04-15T05:31:12;8.63;;;4.00;;
15667;SDS011;7934;48.710;9.024;2023-04-15T05:33:39;7.75;;;4.45;;
15667;SDS011;7934;48.710;9.024;2023-04-15T05:36:06;8.70;;;4.80;;
15667;SDS011;7934;48.710;9.024;2023-04-15T05:38:33;6.13;;;4.37;;
15667;SDS011;7934;48.710;9.024;2023-04-15T05:41:01;7.05;;;4.47;;
15667;SDS011;7934;48.710;9.024;2023-04-15T05:43:28;6.35;;;3.97;;
15667;SDS011;7934;48.710;9.024;2023-04-15T05:46:00;5.43;;;3.70;;
15667;SDS011;7934;48.710;9.024;2023-04-15T05:48:27;6.82;;;3.55;;
15667;SDS011;7934;48.710;9.024;2023-04-15T05:50:54;5.63;;;3.88;;
15667;SDS011;7934;48.710;9.024;2023-04-15T05:53:21;4.35;;;3.67;;
15667;SDS011;7934;48.710;9.024;2023-04-15T05:55:50;5.80;;;3.47;;
15667;SDS011;7934;48.710;9.024;2023-04-15T05:58:18;9.70;;;4.15;;
15667;SDS011;7934;48.710;9.024;2023-04-15T06:00:45;6.18;;;3.45;;
15667;SDS011;7934;48.710;9.024;2023-04-15T06:03:13;7.18;;;3.85;;
15667;SDS011;7934;48.710;9.024;2023-04-15T06:05:42;5.22;;;3.50;;
15667;SDS011;7934;48.710;9.024;2023-04-15T06:08:09;7.47;;;3.92;;
15667;SDS011;7934;48.710;9.024;2023-04-15T06:10:36;3.70;;;3.40;;
15667;SDS011;7934;48.710;9.024;2023-04-15T06:13:04;3.83;;;3.42;;
15667;SDS011;7934;48.710;9.024;2023-04-15T06:15:31;7.75;;;3.85;;
15667;SDS011;7934;48.710;9.024;2023-04-15T06:17:58;4.75;;;3.67;;
15667;SDS011;7934;48.710;9.024;2023-04-15T06:20:26;6.40;;;3.92;;
15667;SDS011;7934;48.710;9.024;2023-04-15T06:22:53;5.78;;;3.67;;
15667;SDS011;7934;48.710;9.024;2023-04-15T06:25:21;5.88;;;3.80;;
15667;SDS011;7934;48.710;9.024;2023-04-15T06:27:48;7.22;;;4.10;;
15667;SDS011;7934;48.710;9.024;2023-04-15T06:30:15;4.93;;;3.90;;
15667;SDS011;7934;48.710;9.024;2023-04-15T06:32:42;5.05;;;3.83;;
15667;SDS011;7934;48.710;9.024;2023-04-15T06:35:10;6.32;;;3.80;;
15667;SDS011;7934;48.710;9.024;2023-04-15T06:37:38;5.38;;;3.60;;
15667;SDS011;7934;48.710;9.024;2023-04-15T06:40:08;5.70;;;3.63;;
15667;SDS011;7934;48.710;9.024;2023-04-15T06:42:36;9.23;;;3.92;;
15667;SDS011;7934;48.710;9.024;2023-04-15T06:45:03;5.88;;;3.70;;
15667;SDS011;7934;48.710;9.024;2023-04-15T06:47:32;5.53;;;3.70;;
15667;SDS011;7934;48.710;9.024;2023-04-15T06:49:59;6.67;;;4.23;;
15667;SDS011;7934;48.710;9.024;2023-04-15T06:52:27;3.65;;;3.30;;
15667;SDS011;7934;48.710;9.024;2023-04-15T06:54:56;4.05;;;3.60;;
15667;SDS011;7934;48.710;9.024;2023-04-15T06:57:25;6.70;;;3.50;;
15667;SDS011;7934;48.710;9.024;2023-04-15T06:59:52;4.77;;;3.50;;
15667;SDS011;7934;48.710;9.024;2023-04-15T07:02:20;3.72;;;3.42;;
15667;SDS011;7934;48.710;9.024;2023-04-15T07:04:48;5.32;;;3.40;;
15667;SDS011;7934;48.710;9.024;2023-04-15T07:07:15;6.28;;;3.28;;
15667;SDS011;7934;48.710;9.024;2023-04-15T07:09:42;6.22;;;3.42;;
15667;SDS011;7934;48.710;9.024;2023-04-15T07:12:11;5.28;;;3.33;;
15667;SDS011;7934;48.710;9.024;2023-04-15T07:14:39;4.70;;;3.70;;
15667;SDS011;7934;48.710;9.024;2023-04-15T07:17:22;4.18;;;3.55;;
15667;SDS011;7934;48.710;9.024;2023-04-15T07:20:03;4.38;;;3.58;;
15667;SDS011;7934;48.710;9.024;2023-04-15T07:22:30;4.25;;;3.20;;
15667;SDS011;7934;48.710;9.024;2023-04-15T07:24:58;6.30;;;3.30;;
15667;SDS011;7934;48.710;9.024;2023-04-15T07:27:26;5.15;;;3.03;;
15667;SDS011;7934;48.710;9.024;2023-04-15T07:29:53;5.60;;;3.78;;
15667;SDS011;7934;48.710;9.024;2023-04-15T07:32:20;3.85;;;2.92;;
15667;SDS011;7934;48.710;9.024;2023-04-15T07:34:48;5.65;;;3.13;;
15667;SDS011;7934;48.710;9.024;2023-04-15T07:37:15;6.20;;;3.53;;
15667;SDS011;7934;48.710;9.024;2023-04-15T07:39:42;4.47;;;3.50;;
15667;SDS011;7934;48.710;9.024;2023-04-15T07:42:10;7.15;;;4.00;;
15667;SDS011;7934;48.710;9.024;2023-04-15T07:44:38;6.13;;;3.72;;
15667;SDS011;7934;48.710;9.024;2023-04-15T07:47:06;6.47;;;3.83;;
15667;SDS011;7934;48.710;9.024;2023-04-15T07:49:33;7.03;;;4.13;;
15667;SDS011;7934;48.710;9.024;2023-04-15T07:52:00;5.50;;;3.67;;
15667;SDS011;7934;48.710;9.024;2023-04-15T07:54:32;4.28;;;3.47;;
15667;SDS011;7934;48.710;9.024;2023-04-15T07:57:01;5.35;;;3.30;;
15667;SDS011;7934;48.710;9.024;2023-04-15T07:59:28;5.97;;;3.85;;
15667;SDS011;7934;48.710;9.024;2023-04-15T08:01:59;4.97;;;3.55;;
15667;SDS011;7934;48.710;9.024;2023-04-15T08:04:26;4.30;;;3.35;;
15667;SDS011;7934;48.710;9.024;2023-04-15T08:06:53;5.30;;;3.13;;
15667;SDS011;7934;48.710;9.024;2023-04-15T08:09:22;4.22;;;2.83;;
15667;SDS011;7934;48.710;9.024;2023-04-15T08:11:49;4.23;;;2.50;;
15667;SDS011;7934;48.710;9.024;2023-04-15T08:14:16;4.07;;;2.50;;
15667;SDS011;7934;48.710;9.024;2023-04-15T08:16:44;6.60;;;3.00;;
15667;SDS011;7934;48.710;9.024;2023-04-15T08:19:13;5.67;;;2.97;;
15667;SDS011;7934;48.710;9.024;2023-04-15T08:21:40;3.80;;;2.60;;
15667;SDS011;7934;48.710;9.024;2023-04-15T08:24:08;5.05;;;2.50;;
15667;SDS011;7934;48.710;9.024;2023-04-15T08:26:37;6.38;;;2.83;;
15667;SDS011;7934;48.710;9.024;2023-04-15T08:29:11;3.63;;;1.87;;
15667;SDS011;7934;48.710;9.024;2023-04-15T08:31:38;2.97;;;1.83;;
15667;SDS011;7934;48.710;9.024;2023-04-15T08:34:05;3.83;;;1.90;;
15667;SDS011;7934;48.710;9.024;2023-04-15T08:36:34;2.60;;;1.63;;
15667;SDS011;7934;48.710;9.024;2023-04-15T08:39:02;5.13;;;1.83;;
15667;SDS011;7934;48.710;9.024;2023-04-15T08:41:31;2.75;;;1.70;;
15667;SDS011;7934;48.710;9.024;2023-04-15T08:44:01;2.83;;;1.70;;
15667;SDS011;7934;48.710;9.024;2023-04-15T08:46:29;2.45;;;1.77;;
15667;SDS011;7934;48.710;9.024;2023-04-15T08:48:58;2.60;;;1.60;;
15667;SDS011;7934;48.710;9.024;2023-04-15T08:51:27;2.78;;;1.50;;
15667;SDS011;7934;48.710;9.024;2023-04-15T08:53:55;2.05;;;1.67;;
15667;SDS011;7934;48.710;9.024;2023-04-15T08:56:23;2.38;;;1.65;;
15667;SDS011;7934;48.710;9.024;2023-04-15T08:58:51;3.47;;;1.90;;
15667;SDS011;7934;48.710;9.024;2023-04-15T09:01:18;2.05;;;1.65;;
15667;SDS011;7934;48.710;9.024;2023-04-15T09:03:48;5.07;;;1.92;;
15667;SDS011;7934;48.710;9.024;2023-04-15T09:06:16;2.47;;;1.70;;
15667;SDS011;7934;48.710;9.024;2023-04-15T09:08:44;2.63;;;1.80;;
15667;SDS011;7934;48.710;9.024;2023-04-15T09:11:12;1.80;;;1.50;;
15667;SDS011;7934;48.710;9.024;2023-04-15T09:13:42;4.03;;;1.70;;
15667;SDS011;7934;48.710;9.024;2023-04-15T09:16:10;2.60;;;1.80;;
15667;SDS011;7934;48.710;9.024;2023-04-15T09:18:37;2.40;;;1.57;;
15667;SDS011;7934;48.710;9.024;2023-04-15T09:21:06;1.92;;;1.55;;
15667;SDS011;7934;48.710;9.024;2023-04-15T09:23:35;4.28;;;1.83;;
15667;SDS011;7934;48.710;9.024;2023-04-15T09:26:09;1.98;;;1.63;;
15667;SDS011;7934;48.710;9.024;2023-04-15T09:28:43;2.78;;;1.98;;
15667;SDS011;7934;48.710;9.024;2023-04-15T09:31:11;1.88;;;1.70;;
15667;SDS011;7934;48.710;9.024;2023-04-15T09:33:53;2.85;;;1.48;;
15667;SDS011;7934;48.710;9.024;2023-04-15T09:36:21;2.58;;;1.60;;
15667;SDS011;7934;48.710;9.024;2023-04-15T09:38:53;2.00;;;1.50;;
15667;SDS011;7934;48.710;9.024;2023-04-15T09:41:22;3.63;;;2.03;;
15667;SDS011;7934;48.710;9.024;2023-04-15T09:43:51;2.30;;;1.77;;
15667;SDS011;7934;48.710;9.024;2023-04-15T09:46:18;3.00;;;1.90;;
15667;SDS011;7934;48.710;9.024;2023-04-15T09:48:46;3.15;;;2.00;;
15667;SDS011;7934;48.710;9.024;2023-04-15T09:51:33;2.70;;;1.60;;
15667;SDS011;7934;48.710;9.024;2023-04-15T09:54:01;2.75;;;2.05;;
15667;SDS011;7934;48.710;9.024;2023-04-15T09:56:31;2.38;;;1.90;;
15667;SDS011;7934;48.710;9.024;2023-04-15T09:59:00;2.10;;;1.77;;
15667;SDS011;7934;48.710;9.024;2023-04-15T10:01:30;4.18;;;2.17;;
15667;SDS011;7934;48.710;9.024;2023-04-15T10:03:58;3.67;;;2.10;;
15667;SDS011;7934;48.710;9.024;2023-04-15T10:06:30;5.88;;;2.40;;
15667;SDS011;7934;48.710;9.024;2023-04-15T10:08:57;3.23;;;1.90;;
15667;SDS011;7934;48.710;9.024;2023-04-15T10:11:26;3.83;;;1.65;;
15667;SDS011;7934;48.710;9.024;2023-04-15T10:13:57;4.55;;;2.50;;
15667;SDS011;7934;48.710;9.024;2023-04-15T10:16:26;2.03;;;1.70;;
15667;SDS011;7934;48.710;9.024;2023-04-15T10:18:54;3.30;;;1.80;;
15667;SDS011;7934;48.710;9.024;2023-04-15T10:21:23;3.55;;;1.67;;
15667;SDS011;7934;48.710;9.024;2023-04-15T10:23:51;1.95;;;1.80;;
15667;SDS011;7934;48.710;9.024;2023-04-15T10:26:18;3.05;;;1.70;;
15667;SDS011;7934;48.710;9.024;2023-04-15T10:28:46;4.33;;;1.90;;
15667;SDS011;7934;48.710;9.024;2023-04-15T10:31:14;3.90;;;1.88;;
15667;SDS011;7934;48.710;9.024;2023-04-15T10:33:45;3.00;;;1.90;;
15667;SDS011;7934;48.710;9.024;2023-04-15T10:36:14;3.72;;;2.20;;
15667;SDS011;7934;48.710;9.024;2023-04-15T10:38:44;3.90;;;2.05;;
15667;SDS011;7934;48.710;9.024;2023-04-15T10:41:16;2.50;;;2.20;;
15667;SDS011;7934;48.710;9.024;2023-04-15T10:43:47;3.63;;;2.05;;
15667;SDS011;7934;48.710;9.024;2023-04-15T10:46:17;2.00;;;1.75;;
15667;SDS011;7934;48.710;9.024;2023-04-15T10:48:49;3.53;;;2.10;;
15667;SDS011;7934;48.710;9.024;2023-04-15T10:51:25;5.28;;;2.65;;
15667;SDS011;7934;48.710;9.024;2023-04-15T10:53:56;3.90;;;2.80;;
15667;SDS011;7934;48.710;9.024;2023-04-15T10:56:24;3.95;;;2.67;;
15667;SDS011;7934;48.710;9.024;2023-04-15T10:58:51;2.75;;;2.55;;
15667;SDS011;7934;48.710;9.024;2023-04-15T11:01:18;3.85;;;2.53;;
15667;SDS011;7934;48.710;9.024;2023-04-15T11:03:48;5.68;;;2.75;;
15667;SDS011;7934;48.710;9.024;2023-04-15T11:12:06;3.90;;;3.20;;
15667;SDS011;7934;48.710;9.024;2023-04-15T11:14:37;4.03;;;3.45;;
15667;SDS011;7934;48.710;9.024;2023-04-15T11:17:24;4.53;;;2.97;;
15667;SDS011;7934;48.710;9.024;2023-04-15T11:19:54;4.30;;;3.03;;
15667;SDS011;7934;48.710;9.024;2023-04-15T11:22:21;4.35;;;2.70;;
15667;SDS011;7934;48.710;9.024;2023-04-15T11:24:50;3.30;;;2.42;;
15667;SDS011;7934;48.710;9.024;2023-04-15T11:27:24;5.40;;;2.40;;
15667;SDS011;7934;48.710;9.024;2023-04-15T11:29:51;3.88;;;2.50;;
15667;SDS011;7934;48.710;9.024;2023-04-15T11:32:18;4.35;;;2.55;;
15667;SDS011;7934;48.710;9.024;2023-04-15T11:34:48;4.95;;;2.55;;
15667;SDS011;7934;48.710;9.024;2023-04-15T11:37:41;3.65;;;2.30;;
15667;SDS011;7934;48.710;9.024;2023-04-15T11:40:09;6.72;;;2.42;;
15667;SDS011;7934;48.710;9.024;2023-04-15T11:43:03;2.05;;;1.88;;
15667;SDS011;7934;48.710;9.024;2023-04-15T11:45:34;3.42;;;2.10;;
15667;SDS011;7934;48.710;9.024;2023-04-15T11:48:04;4.63;;;2.33;;
15667;SDS011;7934;48.710;9.024;2023-04-15T11:50:31;2.72;;;1.80;;
15667;SDS011;7934;48.710;9.024;2023-04-15T11:53:01;4.32;;;2.88;;
15667;SDS011;7934;48.710;9.024;2023-04-15T11:55:29;4.07;;;2.20;;
15667;SDS011;7934;48.710;9.024;2023-04-15T11:58:14;3.83;;;2.33;;
15667;SDS011;7934;48.710;9.024;2023-04-15T12:00:45;2.63;;;2.43;;
15667;SDS011;7934;48.710;9.024;2023-04-15T12:03:16;4.18;;;2.38;;
15667;SDS011;7934;48.710;9.024;2023-04-15T12:06:06;9.27;;;3.00;;
15667;SDS011;7934;48.710;9.024;2023-04-15T12:11:13;2.70;;;2.47;;
15667;SDS011;7934;48.710;9.024;2023-04-15T12:30:54;4.18;;;2.90;;
15667;SDS011;7934;48.710;9.024;2023-04-15T12:33:21;6.72;;;2.90;;
15667;SDS011;7934;48.710;9.024;2023-04-15T12:35:49;4.57;;;3.20;;
15667;SDS011;7934;48.710;9.024;2023-04-15T12:38:16;3.65;;;2.90;;
15667;SDS011;7934;48.710;9.024;2023-04-15T12:40:45;7.17;;;3.20;;
15667;SDS011;7934;48.710;9.024;2023-04-15T12:43:12;3.45;;;2.97;;
15667;SDS011;7934;48.710;9.024;2023-04-15T12:45:41;4.67;;;2.90;;
15667;SDS011;7934;48.710;9.024;2023-04-15T12:48:12;5.53;;;2.85;;
15667;SDS011;7934;48.710;9.024;2023-04-15T12:50:42;3.60;;;2.80;;
15667;SDS011;7934;48.710;9.024;2023-04-15T12:53:09;4.35;;;3.42;;
15667;SDS011;7934;48.710;9.024;2023-04-15T12:55:37;4.85;;;3.40;;
15667;SDS011;7934;48.710;9.024;2023-04-15T12:58:07;4.32;;;3.05;;
15667;SDS011;7934;48.710;9.024;2023-04-15T13:00:35;5.72;;;3.83;;
15667;SDS011;7934;48.710;9.024;2023-04-15T13:03:03;4.63;;;2.90;;
15667;SDS011;7934;48.710;9.024;2023-04-15T13:05:31;4.22;;;3.17;;
15667;SDS011;7934;48.710;9.024;2023-04-15T13:08:01;4.85;;;3.08;;
15667;SDS011;7934;48.710;9.024;2023-04-15T13:10:31;3.30;;;3.00;;
15667;SDS011;7934;48.710;9.024;2023-04-15T13:13:00;4.05;;;2.90;;
15667;SDS011;7934;48.710;9.024;2023-04-15T13:15:27;3.20;;;2.75;;
15667;SDS011;7934;48.710;9.024;2023-04-15T13:17:55;3.53;;;3.23;;
15667;SDS011;7934;48.710;9.024;2023-04-15T13:20:23;3.97;;;2.90;;
15667;SDS011;7934;48.710;9.024;2023-04-15T13:22:52;3.30;;;3.00;;
15667;SDS011;7934;48.710;9.024;2023-04-15T13:25:20;4.60;;;3.03;;
15667;SDS011;7934;48.710;9.024;2023-04-15T13:27:47;3.70;;;3.20;;
15667;SDS011;7934;48.710;9.024;2023-04-15T13:30:14;3.25;;;2.90;;
15667;SDS011;7934;48.710;9.024;2023-04-15T13:32:45;3.80;;;3.00;;
15667;SDS011;7934;48.710;9.024;2023-04-15T13:35:12;4.38;;;3.17;;
15667;SDS011;7934;48.710;9.024;2023-04-15T13:37:40;4.07;;;3.55;;
15667;SDS011;7934;48.710;9.024;2023-04-15T13:40:09;7.20;;;3.30;;
15667;SDS011;7934;48.710;9.024;2023-04-15T13:42:37;3.90;;;2.80;;
15667;SDS011;7934;48.710;9.024;2023-04-15T13:45:05;3.67;;;3.17;;
15667;SDS011;7934;48.710;9.024;2023-04-15T13:47:33;3.67;;;3.38;;
15667;SDS011;7934;48.710;9.024;2023-04-15T13:50:00;4.70;;;3.35;;
15667;SDS011;7934;48.710;9.024;2023-04-15T13:52:27;4.25;;;3.30;;
15667;SDS011;7934;48.710;9.024;2023-04-15T13:54:55;4.50;;;2.90;;
15667;SDS011;7934;48.710;9.024;2023-04-15T13:57:23;3.90;;;2.65;;
15667;SDS011;7934;48.710;9.024;2023-04-15T13:59:51;3.00;;;2.70;;
15667;SDS011;7934;48.710;9.024;2023-04-15T14:02:20;2.60;;;2.40;;
15667;SDS011;7934;48.710;9.024;2023-04-15T14:04:48;4.68;;;2.80;;
15667;SDS011;7934;48.710;9.024;2023-04-15T14:07:15;3.88;;;2.10;;
15667;SDS011;7934;48.710;9.024;2023-04-15T14:09:42;2.72;;;2.25;;
15667;SDS011;7934;48.710;9.024;2023-04-15T14:12:10;2.30;;;2.10;;
15667;SDS011;7934;48.710;9.024;2023-04-15T14:14:38;2.08;;;1.88;;
15667;SDS011;7934;48.710;9.024;2023-04-15T14:17:06;1.80;;;1.20;;
15667;SDS011;7934;48.710;9.024;2023-04-15T14:19:33;1.40;;;1.15;;
15667;SDS011;7934;48.710;9.024;2023-04-15T14:22:01;1.77;;;1.33;;
15667;SDS011;7934;48.710;9.024;2023-04-15T14:24:28;2.10;;;1.20;;
15667;SDS011;7934;48.710;9.024;2023-04-15T14:26:55;3.63;;;1.70;;
15667;SDS011;7934;48.710;9.024;2023-04-15T14:29:22;1.48;;;1.38;;
15667;SDS011;7934;48.710;9.024;2023-04-15T14:31:51;2.45;;;1.50;;
15667;SDS011;7934;48.710;9.024;2023-04-15T14:34:21;1.90;;;1.10;;
15667;SDS011;7934;48.710;9.024;2023-04-15T14:36:49;1.90;;;1.80;;
15667;SDS011;7934;48.710;9.024;2023-04-15T14:39:16;4.03;;;2.05;;
15667;SDS011;7934;48.710;9.024;2023-04-15T14:41:44;1.80;;;1.70;;
15667;SDS011;7934;48.710;9.024;2023-04-15T14:44:11;2.30;;;2.10;;
15667;SDS011;7934;48.710;9.024;2023-04-15T14:46:39;5.10;;;4.07;;
15667;SDS011;7934;48.710;9.024;2023-04-15T14:49:10;3.30;;;3.00;;
15667;SDS011;7934;48.710;9.024;2023-04-15T14:51:37;5.50;;;2.90;;
15667;SDS011;7934;48.710;9.024;2023-04-15T14:54:04;3.40;;;3.05;;
15667;SDS011;7934;48.710;9.024;2023-04-15T14:58:59;3.53;;;2.60;;
15667;SDS011;7934;48.710;9.024;2023-04-15T15:01:27;3.80;;;2.40;;
15667;SDS011;7934;48.710;9.024;2023-04-15T15:03:54;3.63;;;2.70;;
15667;SDS011;7934;48.710;9.024;2023-04-15T15:06:23;2.60;;;2.40;;
15667;SDS011;7934;48.710;9.024;2023-04-15T15:08:50;3.05;;;2.80;;
15667;SDS011;7934;48.710;9.024;2023-04-15T15:11:17;4.28;;;3.00;;
15667;SDS011;7934;48.710;9.024;2023-04-15T15:13:45;3.83;;;2.70;;
15667;SDS011;7934;48.710;9.024;2023-04-15T15:16:12;4.40;;;2.80;;
15667;SDS011;7934;48.710;9.024;2023-04-15T15:18:42;3.53;;;2.60;;
15667;SDS011;7934;48.710;9.024;2023-04-15T15:21:09;5.18;;;2.53;;
15667;SDS011;7934;48.710;9.024;2023-04-15T15:23:38;2.90;;;2.70;;
15667;SDS011;7934;48.710;9.024;2023-04-15T15:26:05;2.90;;;2.70;;
15667;SDS011;7934;48.710;9.024;2023-04-15T15:28:32;3.90;;;3.30;;
15667;SDS011;7934;48.710;9.024;2023-04-15T15:31:00;2.97;;;2.67;;
15667;SDS011;7934;48.710;9.024;2023-04-15T15:33:27;2.65;;;2.45;;
15667;SDS011;7934;48.710;9.024;2023-04-15T15:35:54;2.65;;;2.45;;